sensor_id;sensor_type;location;lat;lon;timestamp;P1;durP1;ratioP1;P2;durP2;ratioP2
50012;SDS011;35901;48.694;9.476;2023-04-25T00:01:11;3.90;;;3.60;;
50012;SDS011;35901;48.694;9.476;2023-04-25T00:03:38;3.90;;;3.60;;
50012;SDS011;35901;48.694;9.476;2023-04-25T00:06:04;3.57;;;2.90;;
50012;SDS011;35901;48.694;9.476;2023-04-25T00:08:30;3.50;;;3.20;;
50012;SDS011;35901;48.694;9.476;2023-04-25T00:10:56;4.00;;;3.60;;
50012;SDS011;35901;48.694;9.476;2023-04-25T00:13:22;3.57;;;3.13;;
50012;SDS011;35901;48.694;9.476;2023-04-25T00:15:48;5.20;;;3.80;;
50012;SDS011;35901;48.694;9.476;2023-04-25T00:18:14;3.30;;;3.10;;
50012;SDS011;35901;48.694;9.476;2023-04-25T00:20:40;4.27;;;3.73;;
50012;SDS011;35901;48.694;9.476;2023-04-25T00:23:11;3.50;;;3.20;;
50012;SDS011;35901;48.694;9.476;2023-04-25T00:25:46;4.83;;;3.80;;
50012;SDS011;35901;48.694;9.476;2023-04-25T00:28:13;3.30;;;3.00;;
50012;SDS011;35901;48.694;9.476;2023-04-25T00:30:40;4.17;;;3.70;;
50012;SDS011;35901;48.694;9.476;2023-04-25T00:33:06;3.70;;;3.40;;
50012;SDS011;35901;48.694;9.476;2023-04-25T00:35:32;3.50;;;3.20;;
50012;SDS011;35901;48.694;9.476;2023-04-25T00:37:58;4.27;;;3.63;;
50012;SDS011;35901;48.694;9.476;2023-04-25T00:40:24;3.93;;;3.40;;
50012;SDS011;35901;48.694;9.476;2023-04-25T00:42:51;3.20;;;3.00;;
50012;SDS011;35901;48.694;9.476;2023-04-25T00:45:17;3.33;;;3.07;;
50012;SDS011;35901;48.694;9.476;2023-04-25T00:47:43;3.60;;;3.17;;
50012;SDS011;35901;48.694;9.476;2023-04-25T00:50:10;3.40;;;3.10;;
50012;SDS011;35901;48.694;9.476;2023-04-25T00:52:37;4.53;;;3.17;;
50012;SDS011;35901;48.694;9.476;2023-04-25T00:55:05;3.37;;;3.07;;
50012;SDS011;35901;48.694;9.476;2023-04-25T00:57:32;3.83;;;3.30;;
50012;SDS011;35901;48.694;9.476;2023-04-25T00:59:57;4.37;;;3.33;;
50012;SDS011;35901;48.694;9.476;2023-04-25T01:02:24;4.33;;;3.50;;
50012;SDS011;35901;48.694;9.476;2023-04-25T01:04:52;3.57;;;2.90;;
50012;SDS011;35901;48.694;9.476;2023-04-25T01:07:18;3.33;;;3.03;;
50012;SDS011;35901;48.694;9.476;2023-04-25T01:09:45;5.23;;;3.73;;
50012;SDS011;35901;48.694;9.476;2023-04-25T01:12:11;3.80;;;3.40;;
50012;SDS011;35901;48.694;9.476;2023-04-25T01:14:37;3.60;;;3.30;;
50012;SDS011;35901;48.694;9.476;2023-04-25T01:17:04;4.23;;;3.23;;
50012;SDS011;35901;48.694;9.476;2023-04-25T01:19:30;3.80;;;3.33;;
50012;SDS011;35901;48.694;9.476;2023-04-25T01:21:56;3.70;;;3.40;;
50012;SDS011;35901;48.694;9.476;2023-04-25T01:24:22;4.20;;;3.20;;
50012;SDS011;35901;48.694;9.476;2023-04-25T01:26:48;4.60;;;3.17;;
50012;SDS011;35901;48.694;9.476;2023-04-25T01:29:18;5.97;;;3.60;;
50012;SDS011;35901;48.694;9.476;2023-04-25T01:31:45;3.27;;;3.07;;
50012;SDS011;35901;48.694;9.476;2023-04-25T01:34:12;4.10;;;3.70;;
50012;SDS011;35901;48.694;9.476;2023-04-25T01:36:38;3.70;;;3.40;;
50012;SDS011;35901;48.694;9.476;2023-04-25T01:39:04;4.37;;;3.53;;
50012;SDS011;35901;48.694;9.476;2023-04-25T01:41:31;3.70;;;3.40;;
50012;SDS011;35901;48.694;9.476;2023-04-25T01:43:57;3.80;;;3.50;;
50012;SDS011;35901;48.694;9.476;2023-04-25T01:46:23;5.93;;;3.80;;
50012;SDS011;35901;48.694;9.476;2023-04-25T01:48:48;4.40;;;3.53;;
50012;SDS011;35901;48.694;9.476;2023-04-25T01:51:14;4.20;;;3.60;;
50012;SDS011;35901;48.694;9.476;2023-04-25T01:53:41;4.03;;;3.33;;
50012;SDS011;35901;48.694;9.476;2023-04-25T01:56:08;3.50;;;3.20;;
50012;SDS011;35901;48.694;9.476;2023-04-25T01:58:35;4.93;;;3.43;;
50012;SDS011;35901;48.694;9.476;2023-04-25T02:01:10;3.93;;;3.63;;
50012;SDS011;35901;48.694;9.476;2023-04-25T02:03:42;4.20;;;3.60;;
50012;SDS011;35901;48.694;9.476;2023-04-25T02:06:27;3.90;;;3.50;;
50012;SDS011;35901;48.694;9.476;2023-04-25T02:08:55;4.37;;;3.50;;
50012;SDS011;35901;48.694;9.476;2023-04-25T02:11:21;4.40;;;3.80;;
50012;SDS011;35901;48.694;9.476;2023-04-25T02:13:56;4.17;;;3.77;;
50012;SDS011;35901;48.694;9.476;2023-04-25T02:16:42;5.00;;;3.73;;
50012;SDS011;35901;48.694;9.476;2023-04-25T02:19:09;4.37;;;3.97;;
50012;SDS011;35901;48.694;9.476;2023-04-25T02:21:35;4.10;;;3.80;;
50012;SDS011;35901;48.694;9.476;2023-04-25T02:24:01;4.37;;;3.97;;
50012;SDS011;35901;48.694;9.476;2023-04-25T02:26:27;4.30;;;3.90;;
50012;SDS011;35901;48.694;9.476;2023-04-25T02:28:57;4.20;;;3.80;;
50012;SDS011;35901;48.694;9.476;2023-04-25T02:31:22;4.10;;;3.70;;
50012;SDS011;35901;48.694;9.476;2023-04-25T02:33:49;5.13;;;4.17;;
50012;SDS011;35901;48.694;9.476;2023-04-25T02:36:15;3.67;;;3.37;;
50012;SDS011;35901;48.694;9.476;2023-04-25T02:38:41;4.33;;;3.93;;
50012;SDS011;35901;48.694;9.476;2023-04-25T02:41:06;5.83;;;3.93;;
50012;SDS011;35901;48.694;9.476;2023-04-25T02:43:32;4.80;;;4.33;;
50012;SDS011;35901;48.694;9.476;2023-04-25T02:45:58;4.67;;;4.27;;
50012;SDS011;35901;48.694;9.476;2023-04-25T02:48:23;5.73;;;4.73;;
50012;SDS011;35901;48.694;9.476;2023-04-25T02:50:49;4.40;;;4.00;;
50012;SDS011;35901;48.694;9.476;2023-04-25T02:53:14;4.10;;;3.70;;
50012;SDS011;35901;48.694;9.476;2023-04-25T02:55:45;5.30;;;4.47;;
50012;SDS011;35901;48.694;9.476;2023-04-25T02:58:11;5.10;;;4.50;;
50012;SDS011;35901;48.694;9.476;2023-04-25T03:00:44;4.97;;;4.30;;
50012;SDS011;35901;48.694;9.476;2023-04-25T03:03:10;3.77;;;3.47;;
50012;SDS011;35901;48.694;9.476;2023-04-25T03:05:36;4.87;;;3.97;;
50012;SDS011;35901;48.694;9.476;2023-04-25T03:08:02;5.60;;;4.00;;
50012;SDS011;35901;48.694;9.476;2023-04-25T03:10:29;4.40;;;4.00;;
50012;SDS011;35901;48.694;9.476;2023-04-25T03:12:59;4.33;;;4.00;;
50012;SDS011;35901;48.694;9.476;2023-04-25T03:15:25;4.40;;;3.97;;
50012;SDS011;35901;48.694;9.476;2023-04-25T03:17:51;6.27;;;3.70;;
50012;SDS011;35901;48.694;9.476;2023-04-25T03:20:17;5.97;;;3.90;;
50012;SDS011;35901;48.694;9.476;2023-04-25T03:22:42;4.37;;;3.77;;
50012;SDS011;35901;48.694;9.476;2023-04-25T03:25:09;4.10;;;3.70;;
50012;SDS011;35901;48.694;9.476;2023-04-25T03:27:35;4.37;;;3.50;;
50012;SDS011;35901;48.694;9.476;2023-04-25T03:30:01;4.47;;;3.73;;
50012;SDS011;35901;48.694;9.476;2023-04-25T03:32:28;4.43;;;3.80;;
50012;SDS011;35901;48.694;9.476;2023-04-25T03:34:53;3.80;;;3.50;;
50012;SDS011;35901;48.694;9.476;2023-04-25T03:37:20;4.13;;;3.73;;
50012;SDS011;35901;48.694;9.476;2023-04-25T03:39:45;3.60;;;3.30;;
50012;SDS011;35901;48.694;9.476;2023-04-25T03:42:11;3.80;;;3.50;;
50012;SDS011;35901;48.694;9.476;2023-04-25T03:44:37;3.90;;;3.53;;
50012;SDS011;35901;48.694;9.476;2023-04-25T03:47:03;4.53;;;3.80;;
50012;SDS011;35901;48.694;9.476;2023-04-25T03:49:29;4.13;;;3.40;;
50012;SDS011;35901;48.694;9.476;2023-04-25T03:52:00;5.50;;;3.77;;
50012;SDS011;35901;48.694;9.476;2023-04-25T03:54:31;5.97;;;3.70;;
50012;SDS011;35901;48.694;9.476;2023-04-25T03:57:17;4.23;;;3.80;;
50012;SDS011;35901;48.694;9.476;2023-04-25T03:59:43;4.40;;;3.50;;
50012;SDS011;35901;48.694;9.476;2023-04-25T04:02:11;3.80;;;3.50;;
50012;SDS011;35901;48.694;9.476;2023-04-25T04:04:38;3.93;;;3.67;;
50012;SDS011;35901;48.694;9.476;2023-04-25T04:07:05;5.63;;;3.60;;
50012;SDS011;35901;48.694;9.476;2023-04-25T04:09:38;4.10;;;3.70;;
50012;SDS011;35901;48.694;9.476;2023-04-25T04:12:11;4.37;;;3.30;;
50012;SDS011;35901;48.694;9.476;2023-04-25T04:14:39;5.27;;;4.20;;
50012;SDS011;35901;48.694;9.476;2023-04-25T04:17:05;4.03;;;3.70;;
50012;SDS011;35901;48.694;9.476;2023-04-25T04:19:31;4.80;;;4.10;;
50012;SDS011;35901;48.694;9.476;2023-04-25T04:22:16;4.23;;;3.83;;
50012;SDS011;35901;48.694;9.476;2023-04-25T04:24:42;5.47;;;4.27;;
50012;SDS011;35901;48.694;9.476;2023-04-25T04:27:14;5.30;;;4.30;;
50012;SDS011;35901;48.694;9.476;2023-04-25T04:30:12;4.70;;;4.20;;
50012;SDS011;35901;48.694;9.476;2023-04-25T04:32:51;4.33;;;3.93;;
50012;SDS011;35901;48.694;9.476;2023-04-25T04:35:17;4.70;;;4.20;;
50012;SDS011;35901;48.694;9.476;2023-04-25T04:37:42;4.87;;;4.40;;
50012;SDS011;35901;48.694;9.476;2023-04-25T04:40:11;5.57;;;5.07;;
50012;SDS011;35901;48.694;9.476;2023-04-25T04:42:53;5.03;;;4.30;;
50012;SDS011;35901;48.694;9.476;2023-04-25T04:45:27;4.47;;;4.07;;
50012;SDS011;35901;48.694;9.476;2023-04-25T04:48:07;4.67;;;4.23;;
50012;SDS011;35901;48.694;9.476;2023-04-25T04:50:33;4.40;;;4.00;;
50012;SDS011;35901;48.694;9.476;2023-04-25T04:53:29;5.40;;;4.20;;
50012;SDS011;35901;48.694;9.476;2023-04-25T04:56:12;4.87;;;3.73;;
50012;SDS011;35901;48.694;9.476;2023-04-25T04:58:53;5.27;;;4.40;;
50012;SDS011;35901;48.694;9.476;2023-04-25T05:01:48;4.23;;;3.80;;
50012;SDS011;35901;48.694;9.476;2023-04-25T05:04:43;3.77;;;3.47;;
50012;SDS011;35901;48.694;9.476;2023-04-25T05:07:38;4.97;;;4.20;;
50012;SDS011;35901;48.694;9.476;2023-04-25T05:10:08;5.73;;;3.97;;
50012;SDS011;35901;48.694;9.476;2023-04-25T05:13:02;4.27;;;3.87;;
50012;SDS011;35901;48.694;9.476;2023-04-25T05:15:49;4.30;;;3.90;;
50012;SDS011;35901;48.694;9.476;2023-04-25T05:18:47;6.97;;;4.30;;
50012;SDS011;35901;48.694;9.476;2023-04-25T05:21:33;3.97;;;3.57;;
50012;SDS011;35901;48.694;9.476;2023-04-25T05:24:20;5.50;;;3.83;;
50012;SDS011;35901;48.694;9.476;2023-04-25T05:27:04;4.00;;;3.60;;
50012;SDS011;35901;48.694;9.476;2023-04-25T05:30:03;4.53;;;4.13;;
50012;SDS011;35901;48.694;9.476;2023-04-25T05:32:49;6.83;;;4.60;;
50012;SDS011;35901;48.694;9.476;2023-04-25T05:35:15;4.87;;;4.33;;
50012;SDS011;35901;48.694;9.476;2023-04-25T05:37:45;5.27;;;4.00;;
50012;SDS011;35901;48.694;9.476;2023-04-25T05:40:13;5.37;;;3.80;;
50012;SDS011;35901;48.694;9.476;2023-04-25T05:43:17;4.90;;;3.80;;
50012;SDS011;35901;48.694;9.476;2023-04-25T05:45:58;4.43;;;4.03;;
50012;SDS011;35901;48.694;9.476;2023-04-25T05:48:41;4.17;;;3.60;;
50012;SDS011;35901;48.694;9.476;2023-04-25T05:51:35;3.90;;;3.43;;
50012;SDS011;35901;48.694;9.476;2023-04-25T05:54:24;4.23;;;3.70;;
50012;SDS011;35901;48.694;9.476;2023-04-25T05:56:50;4.53;;;4.13;;
50012;SDS011;35901;48.694;9.476;2023-04-25T05:59:16;4.17;;;3.70;;
50012;SDS011;35901;48.694;9.476;2023-04-25T06:01:42;4.70;;;4.03;;
50012;SDS011;35901;48.694;9.476;2023-04-25T06:04:07;4.17;;;3.70;;
50012;SDS011;35901;48.694;9.476;2023-04-25T06:06:33;4.10;;;3.70;;
50012;SDS011;35901;48.694;9.476;2023-04-25T06:08:59;3.50;;;3.17;;
50012;SDS011;35901;48.694;9.476;2023-04-25T06:11:25;4.07;;;3.43;;
50012;SDS011;35901;48.694;9.476;2023-04-25T06:13:51;3.77;;;3.33;;
50012;SDS011;35901;48.694;9.476;2023-04-25T06:16:16;3.23;;;3.03;;
50012;SDS011;35901;48.694;9.476;2023-04-25T06:18:42;4.63;;;3.37;;
50012;SDS011;35901;48.694;9.476;2023-04-25T06:21:08;3.27;;;2.97;;
50012;SDS011;35901;48.694;9.476;2023-04-25T06:23:34;4.47;;;3.10;;
50012;SDS011;35901;48.694;9.476;2023-04-25T06:26:05;3.50;;;2.87;;
50012;SDS011;35901;48.694;9.476;2023-04-25T06:28:33;3.10;;;2.80;;
50012;SDS011;35901;48.694;9.476;2023-04-25T06:30:58;3.13;;;2.83;;
50012;SDS011;35901;48.694;9.476;2023-04-25T06:33:24;5.10;;;2.70;;
50012;SDS011;35901;48.694;9.476;2023-04-25T06:35:51;4.67;;;2.50;;
50012;SDS011;35901;48.694;9.476;2023-04-25T06:38:21;2.80;;;2.40;;
50012;SDS011;35901;48.694;9.476;2023-04-25T06:40:49;3.60;;;2.50;;
50012;SDS011;35901;48.694;9.476;2023-04-25T06:43:17;3.27;;;2.80;;
50012;SDS011;35901;48.694;9.476;2023-04-25T06:45:48;2.90;;;2.70;;
50012;SDS011;35901;48.694;9.476;2023-04-25T06:48:14;3.73;;;2.90;;
50012;SDS011;35901;48.694;9.476;2023-04-25T06:50:41;3.27;;;2.47;;
50012;SDS011;35901;48.694;9.476;2023-04-25T06:53:06;4.37;;;3.03;;
50012;SDS011;35901;48.694;9.476;2023-04-25T06:55:35;4.67;;;3.10;;
50012;SDS011;35901;48.694;9.476;2023-04-25T06:58:26;3.60;;;3.10;;
50012;SDS011;35901;48.694;9.476;2023-04-25T07:01:00;3.07;;;2.83;;
50012;SDS011;35901;48.694;9.476;2023-04-25T07:03:26;3.40;;;2.90;;
50012;SDS011;35901;48.694;9.476;2023-04-25T07:05:57;3.57;;;3.10;;
50012;SDS011;35901;48.694;9.476;2023-04-25T07:08:24;3.20;;;3.00;;
50012;SDS011;35901;48.694;9.476;2023-04-25T07:10:50;4.23;;;2.80;;
50012;SDS011;35901;48.694;9.476;2023-04-25T07:13:15;3.73;;;3.40;;
50012;SDS011;35901;48.694;9.476;2023-04-25T07:15:41;4.90;;;3.00;;
50012;SDS011;35901;48.694;9.476;2023-04-25T07:18:07;3.23;;;2.93;;
50012;SDS011;35901;48.694;9.476;2023-04-25T07:20:33;3.80;;;3.37;;
50012;SDS011;35901;48.694;9.476;2023-04-25T07:22:59;3.60;;;3.13;;
50012;SDS011;35901;48.694;9.476;2023-04-25T07:25:25;4.20;;;3.47;;
50012;SDS011;35901;48.694;9.476;2023-04-25T07:27:51;4.20;;;3.27;;
50012;SDS011;35901;48.694;9.476;2023-04-25T07:30:18;3.57;;;2.97;;
50012;SDS011;35901;48.694;9.476;2023-04-25T07:32:44;4.60;;;3.07;;
50012;SDS011;35901;48.694;9.476;2023-04-25T07:35:10;3.90;;;3.07;;
50012;SDS011;35901;48.694;9.476;2023-04-25T07:37:36;3.70;;;2.80;;
50012;SDS011;35901;48.694;9.476;2023-04-25T07:40:09;3.23;;;2.90;;
50012;SDS011;35901;48.694;9.476;2023-04-25T07:42:38;3.47;;;2.77;;
50012;SDS011;35901;48.694;9.476;2023-04-25T07:45:05;3.27;;;2.97;;
50012;SDS011;35901;48.694;9.476;2023-04-25T07:47:31;3.47;;;3.17;;
50012;SDS011;35901;48.694;9.476;2023-04-25T07:49:57;3.07;;;2.77;;
50012;SDS011;35901;48.694;9.476;2023-04-25T07:52:23;3.90;;;3.50;;
50012;SDS011;35901;48.694;9.476;2023-04-25T07:54:55;4.03;;;3.40;;
50012;SDS011;35901;48.694;9.476;2023-04-25T07:57:31;7.33;;;4.20;;
50012;SDS011;35901;48.694;9.476;2023-04-25T07:59:57;8.83;;;6.00;;
50012;SDS011;35901;48.694;9.476;2023-04-25T08:02:24;4.70;;;3.60;;
50012;SDS011;35901;48.694;9.476;2023-04-25T08:04:54;4.40;;;3.60;;
50012;SDS011;35901;48.694;9.476;2023-04-25T08:07:20;4.40;;;3.33;;
50012;SDS011;35901;48.694;9.476;2023-04-25T08:09:53;5.40;;;3.67;;
50012;SDS011;35901;48.694;9.476;2023-04-25T08:12:27;4.20;;;3.50;;
50012;SDS011;35901;48.694;9.476;2023-04-25T08:14:53;3.90;;;3.60;;
50012;SDS011;35901;48.694;9.476;2023-04-25T08:17:19;4.33;;;3.90;;
50012;SDS011;35901;48.694;9.476;2023-04-25T08:19:44;3.57;;;3.23;;
50012;SDS011;35901;48.694;9.476;2023-04-25T08:22:21;3.83;;;3.53;;
50012;SDS011;35901;48.694;9.476;2023-04-25T08:24:52;6.77;;;3.97;;
50012;SDS011;35901;48.694;9.476;2023-04-25T08:27:19;5.00;;;4.50;;
50012;SDS011;35901;48.694;9.476;2023-04-25T08:29:46;4.93;;;4.50;;
50012;SDS011;35901;48.694;9.476;2023-04-25T08:32:13;4.90;;;4.50;;
50012;SDS011;35901;48.694;9.476;2023-04-25T08:34:46;4.63;;;4.13;;
50012;SDS011;35901;48.694;9.476;2023-04-25T08:37:13;4.73;;;4.17;;
50012;SDS011;35901;48.694;9.476;2023-04-25T08:39:46;5.30;;;4.80;;
50012;SDS011;35901;48.694;9.476;2023-04-25T08:42:48;4.40;;;3.87;;
50012;SDS011;35901;48.694;9.476;2023-04-25T08:45:15;4.70;;;4.30;;
50012;SDS011;35901;48.694;9.476;2023-04-25T08:47:42;6.17;;;4.70;;
50012;SDS011;35901;48.694;9.476;2023-04-25T08:50:10;5.03;;;4.60;;
50012;SDS011;35901;48.694;9.476;2023-04-25T08:52:44;5.27;;;4.77;;
50012;SDS011;35901;48.694;9.476;2023-04-25T08:55:13;5.03;;;4.60;;
50012;SDS011;35901;48.694;9.476;2023-04-25T08:57:41;6.10;;;5.17;;
50012;SDS011;35901;48.694;9.476;2023-04-25T09:00:08;5.63;;;5.10;;
50012;SDS011;35901;48.694;9.476;2023-04-25T09:02:38;6.50;;;5.40;;
50012;SDS011;35901;48.694;9.476;2023-04-25T09:05:04;7.77;;;5.70;;
50012;SDS011;35901;48.694;9.476;2023-04-25T09:07:35;7.43;;;5.67;;
50012;SDS011;35901;48.694;9.476;2023-04-25T09:10:00;7.27;;;5.57;;
50012;SDS011;35901;48.694;9.476;2023-04-25T09:12:30;6.87;;;6.17;;
50012;SDS011;35901;48.694;9.476;2023-04-25T09:15:00;5.87;;;5.37;;
50012;SDS011;35901;48.694;9.476;2023-04-25T09:18:02;7.63;;;5.87;;
50012;SDS011;35901;48.694;9.476;2023-04-25T09:20:41;7.10;;;6.47;;
50012;SDS011;35901;48.694;9.476;2023-04-25T09:23:08;6.30;;;5.70;;
50012;SDS011;35901;48.694;9.476;2023-04-25T09:25:36;5.77;;;5.17;;
50012;SDS011;35901;48.694;9.476;2023-04-25T09:28:05;6.13;;;5.50;;
50012;SDS011;35901;48.694;9.476;2023-04-25T09:30:32;6.27;;;5.50;;
50012;SDS011;35901;48.694;9.476;2023-04-25T09:33:08;6.13;;;5.53;;
50012;SDS011;35901;48.694;9.476;2023-04-25T09:35:40;5.73;;;5.20;;
50012;SDS011;35901;48.694;9.476;2023-04-25T09:38:13;6.10;;;5.50;;
50012;SDS011;35901;48.694;9.476;2023-04-25T09:41:06;6.03;;;5.43;;
50012;SDS011;35901;48.694;9.476;2023-04-25T09:43:38;5.80;;;5.30;;
50012;SDS011;35901;48.694;9.476;2023-04-25T09:46:10;5.80;;;5.30;;
50012;SDS011;35901;48.694;9.476;2023-04-25T09:48:40;5.80;;;5.20;;
50012;SDS011;35901;48.694;9.476;2023-04-25T09:51:15;5.80;;;5.30;;
50012;SDS011;35901;48.694;9.476;2023-04-25T09:53:45;8.70;;;6.03;;
50012;SDS011;35901;48.694;9.476;2023-04-25T09:56:32;7.07;;;6.17;;
50012;SDS011;35901;48.694;9.476;2023-04-25T09:59:03;6.27;;;5.67;;
50012;SDS011;35901;48.694;9.476;2023-04-25T10:01:33;7.20;;;6.17;;
50012;SDS011;35901;48.694;9.476;2023-04-25T10:04:13;6.43;;;5.73;;
50012;SDS011;35901;48.694;9.476;2023-04-25T10:06:52;7.47;;;6.67;;
50012;SDS011;35901;48.694;9.476;2023-04-25T10:09:20;7.40;;;6.60;;
50012;SDS011;35901;48.694;9.476;2023-04-25T10:11:49;6.50;;;5.77;;
50012;SDS011;35901;48.694;9.476;2023-04-25T10:14:16;7.20;;;6.47;;
50012;SDS011;35901;48.694;9.476;2023-04-25T10:16:42;8.47;;;7.63;;
50012;SDS011;35901;48.694;9.476;2023-04-25T10:19:09;7.17;;;6.40;;
50012;SDS011;35901;48.694;9.476;2023-04-25T10:21:36;6.90;;;6.20;;
50012;SDS011;35901;48.694;9.476;2023-04-25T10:24:10;5.47;;;4.97;;
50012;SDS011;35901;48.694;9.476;2023-04-25T10:26:36;5.80;;;5.30;;
50012;SDS011;35901;48.694;9.476;2023-04-25T10:29:02;7.77;;;5.93;;
50012;SDS011;35901;48.694;9.476;2023-04-25T10:31:29;6.50;;;5.90;;
50012;SDS011;35901;48.694;9.476;2023-04-25T10:33:55;5.90;;;5.30;;
50012;SDS011;35901;48.694;9.476;2023-04-25T10:36:22;8.23;;;6.83;;
50012;SDS011;35901;48.694;9.476;2023-04-25T10:38:49;8.10;;;7.30;;
50012;SDS011;35901;48.694;9.476;2023-04-25T10:41:19;10.50;;;8.67;;
50012;SDS011;35901;48.694;9.476;2023-04-25T10:43:48;9.50;;;8.03;;
50012;SDS011;35901;48.694;9.476;2023-04-25T10:48:47;8.67;;;7.67;;
50012;SDS011;35901;48.694;9.476;2023-04-25T10:51:21;8.57;;;7.77;;
50012;SDS011;35901;48.694;9.476;2023-04-25T10:54:07;9.07;;;8.17;;
50012;SDS011;35901;48.694;9.476;2023-04-25T10:56:36;10.47;;;8.37;;
50012;SDS011;35901;48.694;9.476;2023-04-25T10:59:26;9.33;;;6.90;;
50012;SDS011;35901;48.694;9.476;2023-04-25T11:01:53;6.57;;;5.97;;
50012;SDS011;35901;48.694;9.476;2023-04-25T11:04:23;6.30;;;5.70;;
50012;SDS011;35901;48.694;9.476;2023-04-25T11:09:28;5.90;;;5.40;;
50012;SDS011;35901;48.694;9.476;2023-04-25T11:11:55;6.07;;;5.57;;
50012;SDS011;35901;48.694;9.476;2023-04-25T11:14:22;7.13;;;5.33;;
50012;SDS011;35901;48.694;9.476;2023-04-25T11:16:54;5.80;;;5.30;;
50012;SDS011;35901;48.694;9.476;2023-04-25T11:19:21;5.43;;;4.97;;
50012;SDS011;35901;48.694;9.476;2023-04-25T11:21:47;4.77;;;4.33;;
50012;SDS011;35901;48.694;9.476;2023-04-25T11:24:13;5.67;;;3.87;;
50012;SDS011;35901;48.694;9.476;2023-04-25T11:26:40;7.77;;;3.80;;
50012;SDS011;35901;48.694;9.476;2023-04-25T11:29:07;3.10;;;2.90;;
50012;SDS011;35901;48.694;9.476;2023-04-25T11:31:32;3.07;;;2.87;;
50012;SDS011;35901;48.694;9.476;2023-04-25T11:33:58;3.10;;;2.80;;
50012;SDS011;35901;48.694;9.476;2023-04-25T11:36:24;2.83;;;2.63;;
50012;SDS011;35901;48.694;9.476;2023-04-25T11:38:51;3.70;;;2.77;;
50012;SDS011;35901;48.694;9.476;2023-04-25T11:41:17;4.13;;;3.00;;
50012;SDS011;35901;48.694;9.476;2023-04-25T11:43:44;3.37;;;3.03;;
50012;SDS011;35901;48.694;9.476;2023-04-25T11:46:09;4.80;;;4.30;;
50012;SDS011;35901;48.694;9.476;2023-04-25T11:48:37;4.00;;;3.70;;
50012;SDS011;35901;48.694;9.476;2023-04-25T11:51:06;3.67;;;3.37;;
50012;SDS011;35901;48.694;9.476;2023-04-25T11:53:32;2.73;;;2.53;;
50012;SDS011;35901;48.694;9.476;2023-04-25T11:55:58;2.73;;;2.53;;
50012;SDS011;35901;48.694;9.476;2023-04-25T11:58:24;2.03;;;1.90;;
50012;SDS011;35901;48.694;9.476;2023-04-25T12:00:50;2.20;;;2.10;;
50012;SDS011;35901;48.694;9.476;2023-04-25T12:03:17;2.00;;;1.90;;
50012;SDS011;35901;48.694;9.476;2023-04-25T12:05:44;2.50;;;2.30;;
50012;SDS011;35901;48.694;9.476;2023-04-25T12:08:10;2.03;;;1.93;;
50012;SDS011;35901;48.694;9.476;2023-04-25T12:10:41;1.90;;;1.80;;
50012;SDS011;35901;48.694;9.476;2023-04-25T12:13:18;2.70;;;2.50;;
50012;SDS011;35901;48.694;9.476;2023-04-25T12:15:45;3.93;;;2.13;;
50012;SDS011;35901;48.694;9.476;2023-04-25T12:18:11;2.10;;;1.90;;
50012;SDS011;35901;48.694;9.476;2023-04-25T12:20:37;2.13;;;1.93;;
50012;SDS011;35901;48.694;9.476;2023-04-25T12:23:05;2.57;;;1.90;;
50012;SDS011;35901;48.694;9.476;2023-04-25T12:28:20;3.37;;;2.07;;
50012;SDS011;35901;48.694;9.476;2023-04-25T12:31:06;3.10;;;1.87;;
50012;SDS011;35901;48.694;9.476;2023-04-25T12:33:36;2.83;;;1.90;;
50012;SDS011;35901;48.694;9.476;2023-04-25T12:36:05;1.50;;;1.40;;
50012;SDS011;35901;48.694;9.476;2023-04-25T12:38:36;1.30;;;1.30;;
50012;SDS011;35901;48.694;9.476;2023-04-25T12:41:04;2.07;;;1.57;;
50012;SDS011;35901;48.694;9.476;2023-04-25T12:43:30;1.60;;;1.50;;
50012;SDS011;35901;48.694;9.476;2023-04-25T12:45:56;1.23;;;1.23;;
50012;SDS011;35901;48.694;9.476;2023-04-25T12:48:22;1.53;;;1.20;;
50012;SDS011;35901;48.694;9.476;2023-04-25T12:50:48;3.03;;;1.40;;
50012;SDS011;35901;48.694;9.476;2023-04-25T12:53:22;4.43;;;1.33;;
50012;SDS011;35901;48.694;9.476;2023-04-25T12:55:49;1.93;;;1.40;;
50012;SDS011;35901;48.694;9.476;2023-04-25T12:58:16;2.03;;;1.50;;
50012;SDS011;35901;48.694;9.476;2023-04-25T13:00:43;3.27;;;1.77;;
50012;SDS011;35901;48.694;9.476;2023-04-25T13:03:10;2.33;;;1.90;;
50012;SDS011;35901;48.694;9.476;2023-04-25T13:05:37;2.17;;;1.97;;
50012;SDS011;35901;48.694;9.476;2023-04-25T13:08:03;1.90;;;1.80;;
50012;SDS011;35901;48.694;9.476;2023-04-25T13:10:29;3.40;;;2.00;;
50012;SDS011;35901;48.694;9.476;2023-04-25T13:12:55;2.90;;;2.10;;
50012;SDS011;35901;48.694;9.476;2023-04-25T13:15:20;3.03;;;2.10;;
50012;SDS011;35901;48.694;9.476;2023-04-25T13:17:46;1.90;;;1.80;;
50012;SDS011;35901;48.694;9.476;2023-04-25T13:20:12;2.30;;;2.20;;
50012;SDS011;35901;48.694;9.476;2023-04-25T13:22:40;2.63;;;1.90;;
50012;SDS011;35901;48.694;9.476;2023-04-25T13:25:06;2.70;;;2.47;;
50012;SDS011;35901;48.694;9.476;2023-04-25T13:27:33;3.27;;;2.97;;
50012;SDS011;35901;48.694;9.476;2023-04-25T13:30:00;3.03;;;2.83;;
50012;SDS011;35901;48.694;9.476;2023-04-25T13:32:29;3.27;;;2.90;;
50012;SDS011;35901;48.694;9.476;2023-04-25T13:34:55;3.30;;;3.00;;
50012;SDS011;35901;48.694;9.476;2023-04-25T13:37:21;3.70;;;3.40;;
50012;SDS011;35901;48.694;9.476;2023-04-25T13:39:49;3.67;;;3.40;;
50012;SDS011;35901;48.694;9.476;2023-04-25T13:42:15;3.27;;;3.07;;
50012;SDS011;35901;48.694;9.476;2023-04-25T13:44:41;3.73;;;3.10;;
50012;SDS011;35901;48.694;9.476;2023-04-25T13:47:06;3.67;;;3.37;;
50012;SDS011;35901;48.694;9.476;2023-04-25T13:49:32;3.90;;;3.60;;
50012;SDS011;35901;48.694;9.476;2023-04-25T13:51:57;3.90;;;3.50;;
50012;SDS011;35901;48.694;9.476;2023-04-25T13:54:23;3.60;;;3.30;;
50012;SDS011;35901;48.694;9.476;2023-04-25T13:56:49;3.77;;;3.47;;
50012;SDS011;35901;48.694;9.476;2023-04-25T13:59:15;3.70;;;3.40;;
50012;SDS011;35901;48.694;9.476;2023-04-25T14:01:41;5.43;;;3.33;;
50012;SDS011;35901;48.694;9.476;2023-04-25T14:04:06;4.00;;;3.70;;
50012;SDS011;35901;48.694;9.476;2023-04-25T14:06:32;3.83;;;3.50;;
50012;SDS011;35901;48.694;9.476;2023-04-25T14:08:58;3.97;;;3.67;;
50012;SDS011;35901;48.694;9.476;2023-04-25T14:11:26;4.10;;;3.70;;
50012;SDS011;35901;48.694;9.476;2023-04-25T14:13:56;3.73;;;3.43;;
50012;SDS011;35901;48.694;9.476;2023-04-25T14:16:21;3.77;;;3.47;;
50012;SDS011;35901;48.694;9.476;2023-04-25T14:18:48;3.70;;;3.40;;
50012;SDS011;35901;48.694;9.476;2023-04-25T14:21:13;4.80;;;4.40;;
50012;SDS011;35901;48.694;9.476;2023-04-25T14:23:39;8.17;;;6.33;;
50012;SDS011;35901;48.694;9.476;2023-04-25T14:26:05;6.37;;;5.80;;
50012;SDS011;35901;48.694;9.476;2023-04-25T14:28:31;5.53;;;5.03;;
50012;SDS011;35901;48.694;9.476;2023-04-25T14:30:56;5.43;;;4.40;;
50012;SDS011;35901;48.694;9.476;2023-04-25T14:33:22;5.13;;;4.73;;
50012;SDS011;35901;48.694;9.476;2023-04-25T14:35:48;4.97;;;4.47;;
50012;SDS011;35901;48.694;9.476;2023-04-25T14:38:14;4.70;;;4.00;;
50012;SDS011;35901;48.694;9.476;2023-04-25T14:40:40;5.63;;;4.33;;
50012;SDS011;35901;48.694;9.476;2023-04-25T14:43:06;4.30;;;3.90;;
50012;SDS011;35901;48.694;9.476;2023-04-25T14:45:33;3.93;;;3.63;;
50012;SDS011;35901;48.694;9.476;2023-04-25T14:47:59;3.70;;;3.37;;
50012;SDS011;35901;48.694;9.476;2023-04-25T14:50:24;4.00;;;3.70;;
50012;SDS011;35901;48.694;9.476;2023-04-25T14:52:50;4.13;;;3.80;;
50012;SDS011;35901;48.694;9.476;2023-04-25T14:55:17;4.57;;;4.17;;
50012;SDS011;35901;48.694;9.476;2023-04-25T14:57:43;4.93;;;4.43;;
50012;SDS011;35901;48.694;9.476;2023-04-25T15:00:09;5.17;;;4.70;;
50012;SDS011;35901;48.694;9.476;2023-04-25T15:02:38;6.07;;;5.57;;
50012;SDS011;35901;48.694;9.476;2023-04-25T15:05:04;10.43;;;7.40;;
50012;SDS011;35901;48.694;9.476;2023-04-25T15:07:30;5.63;;;5.10;;
50012;SDS011;35901;48.694;9.476;2023-04-25T15:09:56;5.57;;;4.93;;